Time;durP1;ratioP1;P1;durP2;ratioP2;P2;SDS_P1;SDS_P2;PMS_P1;PMS_P2;Temp;Humidity;BMP_temperature;BMP_pressure;BME280_temperature;BME280_humidity;BME280_pressure;Samples;Min_cycle;Max_cycle;Signal;HPM_P1;HPM_P2
2022/08/01 00:01:37;;;;;;;0.47;0.00;;;31.00;40.40;;;;;;5027830;28;20056;-63
2022/08/01 00:04:05;;;;;;;0.00;0.00;;;31.00;40.40;;;;;;5026826;28;20073;-62
2022/08/01 00:06:32;;;;;;;0.00;0.00;;;31.00;40.50;;;;;;5027282;28;20057;-62
2022/08/01 00:08:59;;;;;;;0.10;0.05;;;31.00;40.50;;;;;;5027732;28;20168;-63
2022/08/01 00:11:26;;;;;;;0.20;0.00;;;30.90;40.50;;;;;;5027599;28;20042;-62
2022/08/01 00:13:53;;;;;;;0.10;0.10;;;30.90;40.50;;;;;;5027065;28;20415;-63
2022/08/01 00:16:22;;;;;;;0.00;0.00;;;30.90;40.50;;;;;;5027323;28;20056;-64
2022/08/01 00:18:51;;;;;;;0.08;0.00;;;30.90;40.50;;;;;;5027253;28;20120;-62
2022/08/01 00:21:18;;;;;;;0.22;0.10;;;30.90;40.50;;;;;;5027375;28;20050;-63
2022/08/01 00:23:47;;;;;;;0.10;0.00;;;30.90;41.20;;;;;;5027394;28;20523;-62
2022/08/01 00:26:14;;;;;;;0.00;0.00;;;30.90;40.60;;;;;;5027139;28;20052;-64
2022/08/01 00:28:41;;;;;;;0.00;0.00;;;30.90;40.60;;;;;;5027064;28;20518;-63
2022/08/01 00:31:09;;;;;;;0.00;0.00;;;30.90;40.70;;;;;;5025640;28;20037;-63
2022/08/01 00:33:36;;;;;;;0.00;0.00;;;30.80;40.60;;;;;;5025201;28;20125;-64
2022/08/01 00:36:04;;;;;;;0.00;0.00;;;30.90;40.70;;;;;;5026080;28;20080;-62
2022/08/01 00:38:32;;;;;;;0.17;0.00;;;30.90;40.80;;;;;;5025225;28;20038;-63
2022/08/01 00:40:59;;;;;;;0.00;0.00;;;30.90;40.90;;;;;;5027123;28;20048;-63
2022/08/01 00:43:26;;;;;;;1.00;0.00;;;30.80;40.80;;;;;;5026916;28;20041;-62
2022/08/01 00:45:53;;;;;;;0.00;0.00;;;30.80;40.80;;;;;;5027095;28;20678;-62
2022/08/01 00:48:20;;;;;;;0.00;0.00;;;30.80;40.80;;;;;;5026564;28;20041;-60
2022/08/01 00:50:47;;;;;;;0.00;0.00;;;30.80;40.80;;;;;;5026970;28;20140;-62
2022/08/01 00:53:16;;;;;;;1.58;0.00;;;30.80;40.90;;;;;;5025513;28;20049;-62
2022/08/01 00:55:43;;;;;;;0.20;0.20;;;30.80;40.90;;;;;;5026567;28;20124;-62
2022/08/01 00:58:11;;;;;;;0.00;0.00;;;30.70;40.80;;;;;;5026833;28;20735;-64
2022/08/01 01:00:38;;;;;;;0.00;0.00;;;30.80;40.90;;;;;;5026902;28;20120;-62
2022/08/01 01:03:05;;;;;;;0.00;0.00;;;30.80;41.00;;;;;;5026353;28;20120;-62
2022/08/01 01:05:46;;;;;;;0.00;0.00;;;30.70;40.90;;;;;;5030730;28;20056;-62
2022/08/01 01:08:20;;;;;;;0.25;0.10;;;30.80;41.00;;;;;;5030602;28;20494;-63
2022/08/01 01:10:52;;;;;;;0.28;0.00;;;30.70;41.00;;;;;;5023808;28;20103;-62
2022/08/01 01:13:27;;;;;;;0.00;0.00;;;30.70;41.00;;;;;;5030113;28;20120;-62
2022/08/01 01:16:00;;;;;;;0.37;0.00;;;30.70;41.00;;;;;;5030192;28;20045;-62
2022/08/01 01:18:33;;;;;;;0.00;0.00;;;30.70;41.00;;;;;;5030045;28;20414;-62
2022/08/01 01:21:11;;;;;;;0.10;0.10;;;30.70;41.10;;;;;;5030346;28;20049;-60
2022/08/01 01:23:51;;;;;;;0.00;0.00;;;30.70;41.10;;;;;;5030378;28;20068;-62
2022/08/01 01:26:37;;;;;;;0.32;0.10;;;30.70;41.10;;;;;;5030160;28;20045;-63
2022/08/01 01:29:15;;;;;;;0.00;0.00;;;30.70;41.10;;;;;;5028370;28;20045;-62
2022/08/01 01:31:46;;;;;;;0.00;0.00;;;30.70;41.20;;;;;;5029263;28;20064;-62
2022/08/01 01:34:16;;;;;;;0.35;0.05;;;30.70;41.20;;;;;;5029886;28;20047;-62
2022/08/01 01:36:46;;;;;;;0.00;0.00;;;30.70;41.20;;;;;;5029688;28;20071;-62
2022/08/01 01:39:16;;;;;;;0.15;0.15;;;30.60;41.20;;;;;;5029711;28;20041;-62
2022/08/01 01:41:45;;;;;;;0.00;0.00;;;30.60;41.20;;;;;;5029761;28;20052;-62
2022/08/01 01:44:15;;;;;;;0.47;0.05;;;30.60;41.20;;;;;;5029821;28;20041;-62
2022/08/01 01:46:43;;;;;;;0.30;0.00;;;30.60;41.20;;;;;;5029188;28;20140;-62
2022/08/01 01:49:11;;;;;;;0.20;0.00;;;30.60;41.30;;;;;;5029362;28;20033;-62
2022/08/01 01:51:39;;;;;;;0.03;0.03;;;30.60;41.30;;;;;;5029172;28;20747;-61
2022/08/01 01:54:09;;;;;;;0.00;0.00;;;30.60;41.30;;;;;;5036033;28;20191;-61
2022/08/01 01:56:48;;;;;;;0.10;0.00;;;30.60;41.30;;;;;;5027353;28;20645;-63
2022/08/01 01:59:19;;;;;;;0.00;0.00;;;30.60;41.30;;;;;;5021738;28;20053;-63
2022/08/01 02:01:50;;;;;;;0.00;0.00;;;30.60;41.30;;;;;;5021724;28;20045;-62
2022/08/01 02:04:18;;;;;;;0.00;0.00;;;30.50;41.30;;;;;;5028908;28;20041;-62
2022/08/01 02:06:47;;;;;;;0.03;0.03;;;30.50;41.30;;;;;;5029235;28;20582;-62
2022/08/01 02:09:18;;;;;;;0.28;0.00;;;30.50;41.30;;;;;;5027534;28;20049;-64
2022/08/01 02:11:46;;;;;;;0.20;0.03;;;30.50;41.30;;;;;;5029460;28;20068;-63
2022/08/01 02:14:16;;;;;;;0.00;0.00;;;30.50;41.30;;;;;;5028982;28;20069;-62
2022/08/01 02:16:46;;;;;;;0.00;0.00;;;30.50;41.40;;;;;;5028732;28;20441;-62
2022/08/01 02:19:14;;;;;;;1.35;0.00;;;30.50;41.40;;;;;;5028915;28;20576;-62
2022/08/01 02:21:46;;;;;;;0.10;0.00;;;30.50;41.40;;;;;;5028996;28;20054;-62
2022/08/01 02:24:25;;;;;;;0.75;0.00;;;30.50;41.40;;;;;;5028817;28;20045;-63
2022/08/01 02:26:57;;;;;;;0.00;0.00;;;30.50;41.40;;;;;;5028872;28;20123;-63
2022/08/01 02:29:31;;;;;;;0.00;0.00;;;30.50;41.50;;;;;;5028571;28;20863;-63
2022/08/01 02:31:59;;;;;;;0.63;0.03;;;30.50;41.50;;;;;;5027766;28;20107;-62
2022/08/01 02:34:31;;;;;;;0.10;0.10;;;30.50;41.50;;;;;;5028634;28;20037;-62
2022/08/01 02:37:01;;;;;;;0.00;0.00;;;30.50;41.50;;;;;;5021987;28;20033;-63
2022/08/01 02:39:30;;;;;;;0.10;0.03;;;30.50;41.50;;;;;;5022522;28;20076;-61
2022/08/01 02:42:03;;;;;;;0.00;0.00;;;30.50;41.60;;;;;;5022564;28;20392;-61
2022/08/01 02:44:38;;;;;;;0.20;0.00;;;30.50;41.60;;;;;;5027526;28;20049;-61
2022/08/01 02:47:06;;;;;;;0.00;0.00;;;30.40;41.50;;;;;;5028044;28;20045;-62
2022/08/01 02:49:36;;;;;;;0.47;0.00;;;30.40;41.50;;;;;;5028155;28;20284;-63
2022/08/01 02:52:08;;;;;;;0.10;0.00;;;30.40;41.60;;;;;;5028418;28;20095;-63
2022/08/01 02:54:37;;;;;;;0.00;0.00;;;30.40;41.60;;;;;;5027545;28;20598;-62
2022/08/01 02:57:06;;;;;;;0.00;0.00;;;30.40;41.60;;;;;;5028294;28;20442;-62
2022/08/01 02:59:37;;;;;;;0.10;0.10;;;30.40;41.60;;;;;;5027534;28;20192;-62
2022/08/01 03:02:06;;;;;;;0.00;0.00;;;30.40;41.70;;;;;;5028336;28;20481;-63
2022/08/01 03:04:34;;;;;;;0.70;0.00;;;30.40;41.60;;;;;;5021333;28;20030;-63
2022/08/01 03:07:05;;;;;;;0.00;0.00;;;30.40;41.70;;;;;;5028151;28;20045;-63
2022/08/01 03:09:36;;;;;;;0.10;0.10;;;30.40;41.70;;;;;;5027996;28;20057;-63
2022/08/01 03:12:07;;;;;;;0.00;0.00;;;30.40;41.70;;;;;;5027716;28;20065;-63
2022/08/01 03:14:38;;;;;;;0.00;0.00;;;30.40;41.70;;;;;;5027552;28;20145;-63
2022/08/01 03:17:08;;;;;;;0.00;0.00;;;30.40;41.70;;;;;;5027504;28;20037;-63
2022/08/01 03:19:37;;;;;;;0.32;0.00;;;30.40;41.70;;;;;;5027672;28;20041;-63
2022/08/01 03:22:09;;;;;;;0.00;0.00;;;30.40;41.80;;;;;;5028005;28;20041;-63
2022/08/01 03:24:38;;;;;;;0.00;0.00;;;30.40;41.80;;;;;;5021318;28;20113;-63
2022/08/01 03:27:06;;;;;;;0.00;0.00;;;30.40;42.40;;;;;;5021137;28;20052;-62
2022/08/01 03:29:36;;;;;;;0.08;0.00;;;30.40;41.80;;;;;;5027374;28;20041;-63
2022/08/01 03:32:05;;;;;;;0.10;0.00;;;30.40;41.80;;;;;;5022238;28;20475;-63
2022/08/01 03:34:32;;;;;;;0.00;0.00;;;30.40;41.80;;;;;;5026971;28;20042;-62
2022/08/01 03:37:07;;;;;;;0.00;0.00;;;30.40;41.80;;;;;;5027464;28;20123;-62
2022/08/01 03:39:38;;;;;;;1.45;0.25;;;30.40;41.90;;;;;;5027162;28;20563;-62
2022/08/01 03:42:13;;;;;;;0.43;0.00;;;30.30;41.80;;;;;;5020272;28;20040;-62
2022/08/01 03:44:42;;;;;;;0.00;0.00;;;30.30;41.80;;;;;;5027334;28;20049;-62
2022/08/01 03:47:10;;;;;;;0.20;0.20;;;30.30;41.90;;;;;;5026730;28;20037;-63
2022/08/01 03:49:43;;;;;;;0.00;0.00;;;30.30;41.90;;;;;;5031512;28;20052;-62
2022/08/01 03:52:11;;;;;;;0.00;0.00;;;30.30;41.90;;;;;;5027277;28;20073;-63
2022/08/01 03:54:45;;;;;;;0.00;0.00;;;30.30;41.90;;;;;;5027079;28;20041;-64
2022/08/01 03:57:12;;;;;;;1.55;0.00;;;30.30;41.90;;;;;;5026810;28;20030;-63
2022/08/01 03:59:41;;;;;;;0.00;0.00;;;30.30;42.00;;;;;;5022599;28;20099;-63
2022/08/01 04:02:08;;;;;;;0.00;0.00;;;30.30;42.00;;;;;;5023709;28;20116;-63
2022/08/01 04:04:36;;;;;;;0.00;0.00;;;30.30;42.00;;;;;;5027099;28;20061;-62
2022/08/01 04:07:06;;;;;;;0.00;0.00;;;30.30;42.00;;;;;;5027247;28;20489;-63
2022/08/01 04:09:33;;;;;;;0.00;0.00;;;30.30;42.00;;;;;;5027524;28;20042;-63
2022/08/01 04:12:01;;;;;;;0.00;0.00;;;30.30;42.00;;;;;;5026710;28;20758;-62
2022/08/01 04:14:28;;;;;;;0.00;0.00;;;30.30;42.10;;;;;;5026693;28;20599;-63
2022/08/01 04:16:57;;;;;;;0.00;0.00;;;30.30;42.10;;;;;;5026987;28;20459;-63
2022/08/01 04:19:25;;;;;;;0.00;0.00;;;30.30;42.10;;;;;;5026323;28;20130;-62
2022/08/01 04:21:52;;;;;;;0.00;0.00;;;30.30;42.10;;;;;;5026586;28;20515;-62
2022/08/01 04:24:21;;;;;;;0.00;0.00;;;30.30;42.10;;;;;;5026701;28;20119;-63
2022/08/01 04:26:50;;;;;;;0.20;0.00;;;30.30;42.10;;;;;;5026713;28;20049;-63
2022/08/01 04:29:20;;;;;;;0.10;0.00;;;30.30;42.10;;;;;;5026987;28;20148;-62
2022/08/01 04:31:49;;;;;;;0.00;0.00;;;30.30;42.20;;;;;;5026772;28;20103;-62
2022/08/01 04:34:22;;;;;;;0.00;0.00;;;30.30;42.20;;;;;;5026260;28;20046;-63
2022/08/01 04:36:51;;;;;;;0.38;0.00;;;30.30;42.20;;;;;;5010091;28;20140;-63
2022/08/01 04:39:19;;;;;;;0.00;0.00;;;30.30;42.20;;;;;;5022364;28;20132;-62
2022/08/01 04:41:47;;;;;;;0.00;0.00;;;30.20;42.10;;;;;;5023938;28;20199;-62
2022/08/01 04:44:15;;;;;;;0.30;0.10;;;30.30;42.20;;;;;;5024096;28;20532;-62
2022/08/01 04:46:43;;;;;;;0.00;0.00;;;30.30;42.20;;;;;;5024229;28;20077;-63
2022/08/01 04:49:11;;;;;;;0.00;0.00;;;30.20;42.10;;;;;;5024064;28;20042;-62
2022/08/01 04:51:52;;;;;;;0.45;0.00;;;30.20;42.10;;;;;;5024378;28;20048;-63
2022/08/01 04:54:21;;;;;;;0.00;0.00;;;30.30;42.20;;;;;;5025657;28;20783;-62
2022/08/01 04:56:48;;;;;;;0.22;0.10;;;30.20;42.20;;;;;;5030267;28;20154;-62
2022/08/01 05:01:59;;;;;;;0.00;0.00;;;30.20;42.20;;;;;;5030242;28;20044;-62
2022/08/01 05:04:26;;;;;;;0.00;0.00;;;30.20;42.90;;;;;;5030149;28;20036;-62
2022/08/01 05:06:55;;;;;;;0.77;0.00;;;30.20;42.30;;;;;;5030065;28;20073;-63
2022/08/01 05:09:22;;;;;;;0.00;0.00;;;30.20;42.30;;;;;;5029735;28;20510;-63
2022/08/01 05:11:49;;;;;;;0.00;0.00;;;30.20;42.30;;;;;;5029951;28;20041;-63
2022/08/01 05:14:16;;;;;;;0.10;0.00;;;30.20;42.30;;;;;;5030210;28;20411;-62
2022/08/01 05:16:43;;;;;;;0.90;0.10;;;30.20;42.90;;;;;;5029665;28;20124;-62
2022/08/01 05:19:10;;;;;;;0.00;0.00;;;30.20;42.30;;;;;;5029804;28;20068;-62
2022/08/01 05:21:37;;;;;;;0.00;0.00;;;30.20;42.30;;;;;;5026934;28;20080;-62
2022/08/01 05:24:06;;;;;;;0.20;0.00;;;30.20;42.30;;;;;;5029434;28;20403;-63
2022/08/01 05:26:33;;;;;;;0.52;0.00;;;30.20;42.30;;;;;;5029437;28;20080;-64
2022/08/01 05:29:01;;;;;;;0.00;0.00;;;30.20;42.40;;;;;;5029867;28;20037;-64
2022/08/01 05:31:28;;;;;;;0.00;0.00;;;30.20;42.40;;;;;;5029754;28;20050;-64
2022/08/01 05:33:55;;;;;;;0.35;0.00;;;30.20;42.40;;;;;;5029276;28;20037;-62
2022/08/01 05:36:22;;;;;;;0.00;0.00;;;30.20;42.40;;;;;;5029532;28;20053;-62
2022/08/01 05:38:49;;;;;;;0.00;0.00;;;30.20;42.40;;;;;;5029324;28;20048;-63
2022/08/01 05:41:18;;;;;;;0.20;0.00;;;30.20;42.40;;;;;;5021715;28;20044;-63
2022/08/01 05:43:45;;;;;;;0.30;0.30;;;30.20;42.40;;;;;;5029297;28;20045;-63
2022/08/01 05:46:12;;;;;;;0.00;0.00;;;30.20;42.40;;;;;;5032228;28;20129;-63
2022/08/01 05:48:39;;;;;;;0.10;0.00;;;30.20;42.40;;;;;;5029131;28;20041;-63
2022/08/01 05:51:06;;;;;;;0.00;0.00;;;30.20;42.40;;;;;;5028987;28;20972;-62
2022/08/01 05:53:34;;;;;;;0.00;0.00;;;30.20;42.40;;;;;;5028806;28;20045;-63
2022/08/01 05:56:01;;;;;;;0.00;0.00;;;30.20;42.40;;;;;;5026803;28;20107;-62
2022/08/01 05:58:30;;;;;;;0.00;0.00;;;30.20;42.40;;;;;;5029240;28;20051;-64
2022/08/01 06:00:57;;;;;;;0.10;0.00;;;30.20;42.50;;;;;;5028976;28;20041;-63
2022/08/01 06:03:24;;;;;;;0.25;0.03;;;30.10;42.30;;;;;;5027307;28;20047;-62
2022/08/01 06:05:52;;;;;;;0.43;0.00;;;30.20;42.50;;;;;;5027436;28;20120;-64
2022/08/01 06:08:19;;;;;;;0.00;0.00;;;30.20;42.50;;;;;;5026027;28;20518;-64
2022/08/01 06:10:47;;;;;;;0.00;0.00;;;30.20;42.50;;;;;;5028943;28;20041;-63
2022/08/01 06:13:14;;;;;;;0.00;0.00;;;30.20;42.50;;;;;;5028963;28;20400;-63
2022/08/01 06:15:42;;;;;;;0.00;0.00;;;30.20;42.50;;;;;;5028756;28;20095;-62
2022/08/01 06:18:09;;;;;;;0.10;0.00;;;30.20;42.50;;;;;;5027780;28;20038;-63
2022/08/01 06:20:36;;;;;;;0.43;0.43;;;30.20;42.60;;;;;;5028329;28;20435;-63
2022/08/01 06:23:03;;;;;;;0.47;0.13;;;30.20;42.50;;;;;;5028077;28;20588;-63
2022/08/01 06:25:30;;;;;;;0.68;0.10;;;30.20;43.10;;;;;;5026514;28;20515;-63
2022/08/01 06:27:58;;;;;;;0.05;0.00;;;30.20;42.50;;;;;;5005251;28;20074;-62
2022/08/01 06:30:25;;;;;;;0.00;0.00;;;30.20;42.50;;;;;;5028605;28;20041;-62
2022/08/01 06:32:55;;;;;;;0.65;0.00;;;30.20;42.50;;;;;;5028488;28;20517;-62
2022/08/01 06:35:23;;;;;;;0.30;0.10;;;30.20;42.50;;;;;;5028103;28;20049;-63
2022/08/01 06:37:49;;;;;;;0.00;0.00;;;30.20;42.50;;;;;;5028090;28;20053;-63
2022/08/01 06:40:17;;;;;;;0.10;0.10;;;30.20;42.50;;;;;;5028454;28;20042;-63
2022/08/01 06:42:45;;;;;;;0.00;0.00;;;30.10;42.40;;;;;;5028195;28;20511;-63
2022/08/01 06:45:13;;;;;;;0.10;0.00;;;30.20;42.50;;;;;;5028198;28;20077;-63
2022/08/01 06:47:42;;;;;;;0.10;0.10;;;30.20;42.60;;;;;;5028243;28;20442;-63
2022/08/01 06:50:13;;;;;;;0.40;0.10;;;30.20;42.50;;;;;;5028203;28;20148;-63
2022/08/01 06:52:41;;;;;;;0.20;0.00;;;30.20;42.50;;;;;;5028379;28;20077;-63
2022/08/01 06:55:09;;;;;;;0.20;0.10;;;30.20;42.50;;;;;;5028083;28;20056;-63
2022/08/01 06:57:36;;;;;;;0.10;0.10;;;30.20;42.50;;;;;;5028081;28;20591;-63
2022/08/01 07:00:08;;;;;;;0.65;0.00;;;30.20;42.60;;;;;;5028002;28;20057;-63
2022/08/01 07:02:36;;;;;;;0.10;0.05;;;30.20;42.50;;;;;;5027237;28;20086;-63
2022/08/01 07:05:03;;;;;;;0.52;0.00;;;30.20;42.50;;;;;;5027645;28;20069;-62
2022/08/01 07:07:32;;;;;;;0.75;0.10;;;30.20;42.50;;;;;;5026493;28;20597;-64
2022/08/01 07:09:59;;;;;;;0.80;0.10;;;30.20;42.50;;;;;;5027795;28;20126;-64
2022/08/01 07:12:26;;;;;;;0.00;0.00;;;30.20;43.10;;;;;;5027995;28;20034;-63
2022/08/01 07:14:53;;;;;;;0.30;0.30;;;30.20;42.50;;;;;;5027991;28;20052;-63
2022/08/01 07:17:20;;;;;;;0.20;0.10;;;30.20;42.50;;;;;;5028110;28;20056;-64
2022/08/01 07:19:47;;;;;;;0.20;0.00;;;30.20;42.50;;;;;;5027278;28;20056;-63
2022/08/01 07:22:16;;;;;;;0.38;0.10;;;30.20;42.40;;;;;;5027734;28;20038;-63
2022/08/01 07:24:44;;;;;;;0.13;0.00;;;30.20;42.50;;;;;;5027667;28;20955;-63
2022/08/01 07:27:11;;;;;;;0.57;0.20;;;30.20;42.40;;;;;;5025807;28;20073;-63
2022/08/01 07:29:38;;;;;;;0.10;0.10;;;30.20;42.40;;;;;;5027451;28;20049;-64
2022/08/01 07:32:06;;;;;;;0.10;0.10;;;30.30;42.50;;;;;;5027650;28;20056;-63
2022/08/01 07:34:33;;;;;;;0.17;0.10;;;30.30;42.50;;;;;;5027095;28;20874;-63
2022/08/01 07:37:00;;;;;;;0.08;0.00;;;30.30;42.50;;;;;;5024717;28;20049;-63
2022/08/01 07:39:27;;;;;;;0.55;0.10;;;30.30;42.50;;;;;;5023800;28;20041;-63
2022/08/01 07:41:56;;;;;;;0.57;0.10;;;30.30;42.50;;;;;;5027402;28;20132;-62
2022/08/01 07:44:23;;;;;;;0.20;0.10;;;30.30;42.50;;;;;;5029867;28;20610;-63
2022/08/01 07:46:50;;;;;;;0.10;0.10;;;30.30;42.50;;;;;;5027267;28;20041;-63
2022/08/01 07:49:17;;;;;;;0.88;0.10;;;30.30;42.50;;;;;;5026758;28;20042;-62
2022/08/01 07:51:44;;;;;;;0.10;0.10;;;30.30;42.50;;;;;;5027377;28;20034;-62
2022/08/01 07:54:11;;;;;;;0.30;0.10;;;30.30;42.40;;;;;;5027398;28;20041;-63
2022/08/01 07:56:38;;;;;;;1.42;0.10;;;30.30;42.40;;;;;;5026809;28;20132;-62
2022/08/01 07:59:06;;;;;;;1.55;0.10;;;30.30;42.40;;;;;;5027229;28;20044;-63
2022/08/01 08:01:33;;;;;;;0.20;0.20;;;30.40;42.50;;;;;;5012983;28;20070;-63
2022/08/01 08:04:00;;;;;;;0.13;0.10;;;30.40;42.50;;;;;;5026713;28;20064;-63
2022/08/01 08:06:27;;;;;;;0.47;0.20;;;30.30;42.40;;;;;;5027160;28;20064;-63
2022/08/01 08:08:54;;;;;;;0.10;0.10;;;30.40;42.50;;;;;;5027218;28;20044;-63
2022/08/01 08:11:21;;;;;;;0.20;0.20;;;30.30;42.30;;;;;;5025142;28;20038;-63
2022/08/01 08:13:48;;;;;;;0.85;0.10;;;30.30;42.30;;;;;;5025647;28;20128;-63
2022/08/01 08:16:17;;;;;;;0.13;0.10;;;30.40;42.40;;;;;;5031034;28;20694;-63
2022/08/01 08:18:44;;;;;;;0.10;0.10;;;30.40;42.40;;;;;;5030517;28;20060;-62
2022/08/01 08:21:11;;;;;;;0.10;0.10;;;30.40;42.30;;;;;;5031298;28;20045;-63
2022/08/01 08:26:23;;;;;;;0.10;0.10;;;30.40;42.40;;;;;;5031083;28;20044;-63
2022/08/01 08:28:50;;;;;;;0.60;0.10;;;30.40;42.40;;;;;;5031096;28;20045;-62
2022/08/01 08:31:18;;;;;;;0.10;0.10;;;30.40;42.40;;;;;;5029617;28;20037;-62
2022/08/01 08:33:45;;;;;;;1.65;0.10;;;30.40;42.30;;;;;;5030657;28;20045;-62
2022/08/01 08:36:14;;;;;;;0.30;0.10;;;30.40;42.30;;;;;;5031137;28;20133;-63
2022/08/01 08:38:41;;;;;;;0.75;0.10;;;30.40;42.20;;;;;;5024018;28;20179;-62
2022/08/01 08:41:10;;;;;;;0.35;0.20;;;30.50;42.30;;;;;;5027674;28;20046;-62
2022/08/01 08:43:37;;;;;;;1.17;0.20;;;30.50;42.30;;;;;;5030593;28;20052;-63
2022/08/01 08:46:06;;;;;;;2.15;0.10;;;30.40;42.20;;;;;;5030243;28;20840;-62
2022/08/01 08:48:35;;;;;;;0.82;0.10;;;30.50;42.20;;;;;;5028605;28;20344;-61
2022/08/01 08:51:02;;;;;;;0.10;0.10;;;30.50;42.20;;;;;;5030428;28;20038;-61
2022/08/01 08:53:31;;;;;;;0.32;0.32;;;30.50;42.20;;;;;;5030450;28;20068;-62
2022/08/01 08:56:00;;;;;;;3.05;0.20;;;30.50;42.20;;;;;;5030087;28;20137;-61
2022/08/01 08:58:27;;;;;;;0.20;0.20;;;30.50;42.20;;;;;;5030723;28;20064;-62
2022/08/01 09:00:55;;;;;;;0.20;0.10;;;30.50;42.20;;;;;;5030290;28;20045;-62
2022/08/01 09:03:22;;;;;;;4.68;0.20;;;30.50;42.10;;;;;;5030180;28;20079;-61
2022/08/01 09:05:50;;;;;;;0.25;0.10;;;30.50;42.10;;;;;;5030391;28;20064;-60
2022/08/01 09:08:17;;;;;;;0.10;0.10;;;30.60;42.10;;;;;;5030202;28;20048;-62
2022/08/01 09:10:44;;;;;;;0.45;0.20;;;30.60;42.10;;;;;;5024566;28;20059;-60
2022/08/01 09:13:14;;;;;;;0.30;0.13;;;30.60;42.10;;;;;;5029962;28;20034;-61
2022/08/01 09:15:46;;;;;;;0.15;0.10;;;30.60;42.10;;;;;;5029826;28;20041;-62
2022/08/01 09:18:31;;;;;;;0.10;0.10;;;30.60;42.00;;;;;;5022059;28;20116;-63
2022/08/01 09:21:12;;;;;;;0.20;0.10;;;30.60;42.00;;;;;;5025172;28;20138;-64
2022/08/01 09:23:42;;;;;;;0.10;0.10;;;30.60;42.00;;;;;;5029681;28;20564;-63
2022/08/01 09:26:09;;;;;;;0.32;0.10;;;30.60;42.00;;;;;;5029267;28;20052;-63
2022/08/01 09:28:37;;;;;;;0.20;0.10;;;30.60;41.90;;;;;;5029874;28;20492;-62
2022/08/01 09:31:09;;;;;;;0.40;0.15;;;30.60;41.90;;;;;;5029507;28;20088;-63
2022/08/01 09:33:50;;;;;;;0.30;0.20;;;30.60;41.90;;;;;;5029706;28;20483;-62
2022/08/01 09:36:19;;;;;;;0.80;0.20;;;30.60;41.80;;;;;;5029905;28;20045;-63
2022/08/01 09:38:46;;;;;;;1.45;0.30;;;30.60;41.80;;;;;;5029613;28;20069;-63
2022/08/01 09:41:14;;;;;;;0.28;0.10;;;30.60;41.90;;;;;;5035268;28;20041;-63
2022/08/01 09:43:48;;;;;;;0.15;0.10;;;30.60;41.80;;;;;;5029647;28;20053;-64
2022/08/01 09:46:15;;;;;;;1.08;0.10;;;30.60;41.80;;;;;;5029524;28;20051;-63
2022/08/01 09:48:56;;;;;;;1.10;0.17;;;30.60;41.80;;;;;;5022863;28;20835;-62
2022/08/01 09:51:35;;;;;;;0.10;0.10;;;30.70;41.80;;;;;;5029766;28;20073;-63
2022/08/01 09:54:04;;;;;;;0.20;0.10;;;30.70;41.80;;;;;;5029429;28;20042;-63
2022/08/01 09:56:38;;;;;;;0.52;0.20;;;30.70;41.80;;;;;;5029090;28;20409;-63
2022/08/01 09:59:06;;;;;;;0.10;0.10;;;30.70;41.80;;;;;;5029398;28;20048;-63
2022/08/01 10:01:45;;;;;;;0.75;0.10;;;30.70;41.70;;;;;;5029081;28;20099;-61
2022/08/01 10:04:14;;;;;;;0.10;0.10;;;30.70;41.60;;;;;;5024653;28;20546;-63
2022/08/01 10:06:49;;;;;;;0.15;0.10;;;30.70;41.70;;;;;;5029720;28;20423;-63
2022/08/01 10:09:17;;;;;;;0.85;0.10;;;30.70;41.70;;;;;;5029370;28;20049;-62
2022/08/01 10:11:45;;;;;;;0.25;0.10;;;30.70;41.60;;;;;;5029371;28;20049;-62
2022/08/01 10:14:14;;;;;;;0.10;0.10;;;30.70;41.60;;;;;;5029150;28;20042;-63
2022/08/01 10:16:41;;;;;;;0.15;0.10;;;30.70;41.60;;;;;;5028714;28;20123;-62
2022/08/01 10:19:09;;;;;;;0.30;0.10;;;30.70;41.60;;;;;;5028715;28;20060;-62
2022/08/01 10:21:39;;;;;;;0.17;0.15;;;30.70;41.50;;;;;;5028499;28;20421;-63
2022/08/01 10:24:10;;;;;;;1.20;0.10;;;30.70;41.50;;;;;;5028885;28;20100;-64
2022/08/01 10:26:39;;;;;;;0.73;0.10;;;30.70;41.50;;;;;;5022545;28;20140;-62
2022/08/01 10:29:07;;;;;;;0.65;0.20;;;30.70;41.50;;;;;;5022542;28;20561;-62
2022/08/01 10:31:34;;;;;;;0.10;0.10;;;30.70;41.50;;;;;;5022723;28;20054;-62
2022/08/01 10:34:02;;;;;;;0.10;0.10;;;30.70;41.40;;;;;;5022300;28;20503;-62
2022/08/01 10:36:30;;;;;;;0.10;0.10;;;30.70;41.40;;;;;;5021276;28;20056;-62
2022/08/01 10:38:58;;;;;;;1.55;0.10;;;30.70;41.40;;;;;;5015632;28;20049;-62
2022/08/01 10:41:29;;;;;;;0.30;0.05;;;30.70;41.30;;;;;;5022252;28;20064;-62
2022/08/01 10:43:56;;;;;;;0.10;0.10;;;30.80;41.40;;;;;;5022356;28;20562;-63
2022/08/01 10:46:23;;;;;;;0.30;0.20;;;30.80;41.40;;;;;;5021810;28;20044;-62
2022/08/01 10:48:57;;;;;;;0.10;0.10;;;30.80;41.30;;;;;;5028654;28;20042;-62
2022/08/01 10:51:26;;;;;;;0.45;0.20;;;30.80;41.30;;;;;;5028760;28;20051;-62
2022/08/01 10:53:54;;;;;;;0.20;0.13;;;30.80;41.30;;;;;;5028609;28;20045;-61
2022/08/01 10:56:22;;;;;;;0.20;0.15;;;30.80;41.20;;;;;;5028360;28;20519;-63
2022/08/01 10:59:01;;;;;;;0.10;0.10;;;30.80;41.20;;;;;;5027872;28;20049;-63
2022/08/01 11:01:31;;;;;;;0.10;0.10;;;30.90;41.30;;;;;;5028472;28;20069;-63
2022/08/01 11:04:05;;;;;;;0.17;0.10;;;30.80;41.20;;;;;;5028449;28;20087;-63
2022/08/01 11:06:43;;;;;;;0.82;0.50;;;30.90;41.30;;;;;;5028443;28;20068;-63
2022/08/01 11:09:30;;;;;;;0.47;0.10;;;30.90;41.20;;;;;;5008470;28;20137;-63
2022/08/01 11:12:04;;;;;;;0.10;0.10;;;30.90;41.20;;;;;;5022871;28;20641;-63
2022/08/01 11:14:33;;;;;;;0.10;0.10;;;30.90;41.10;;;;;;5028274;28;20045;-63
2022/08/01 11:17:33;;;;;;;0.10;0.10;;;30.90;41.10;;;;;;5021429;28;20075;-64
2022/08/01 11:20:11;;;;;;;0.57;0.10;;;30.90;41.10;;;;;;5021402;28;20475;-63
2022/08/01 11:23:25;;;;;;;0.10;0.10;;;30.90;41.10;;;;;;5023362;28;20049;-63
2022/08/01 11:26:11;;;;;;;0.10;0.10;;;30.90;41.00;;;;;;5027574;28;20550;-63
2022/08/01 11:28:40;;;;;;;0.10;0.10;;;30.90;41.10;;;;;;5027833;28;20561;-63
2022/08/01 11:31:28;;;;;;;0.38;0.10;;;30.90;41.10;;;;;;5027652;28;20045;-63
2022/08/01 11:33:55;;;;;;;2.30;0.40;;;30.90;41.00;;;;;;5030923;28;20503;-66
2022/08/01 11:36:22;;;;;;;20.45;0.73;;;30.90;41.60;;;;;;5027672;28;20045;-62
2022/08/01 11:39:11;;;;;;;13.52;0.50;;;30.90;41.90;;;;;;5027953;28;20129;-64
2022/08/01 11:41:39;;;;;;;3.60;0.13;;;30.90;42.10;;;;;;5027679;28;20096;-65
2022/08/01 11:44:07;;;;;;;1.25;0.47;;;30.90;41.80;;;;;;5028114;28;20640;-64
2022/08/01 11:46:54;;;;;;;3.83;0.10;;;31.00;41.80;;;;;;5028353;28;20046;-64
2022/08/01 11:49:25;;;;;;;2.70;0.17;;;31.00;41.80;;;;;;5021322;28;20061;-64
2022/08/01 11:51:58;;;;;;;2.17;0.20;;;31.00;41.70;;;;;;5028296;28;20049;-64
2022/08/01 11:54:28;;;;;;;2.67;0.32;;;31.10;41.80;;;;;;5028273;28;20072;-64
2022/08/01 11:57:00;;;;;;;0.63;0.15;;;31.00;41.60;;;;;;5021818;28;20132;-64
2022/08/01 11:59:27;;;;;;;4.57;0.10;;;31.10;41.70;;;;;;5022306;28;20052;-65
2022/08/01 12:01:56;;;;;;;1.20;0.13;;;31.10;41.60;;;;;;5028439;28;20096;-64
2022/08/01 12:04:23;;;;;;;1.75;0.10;;;31.10;41.60;;;;;;5028102;28;20046;-64
2022/08/01 12:06:50;;;;;;;0.45;0.45;;;31.10;41.50;;;;;;5025753;28;20034;-64
2022/08/01 12:09:23;;;;;;;1.27;0.15;;;31.10;41.50;;;;;;5027598;28;20574;-65
2022/08/01 12:11:50;;;;;;;0.98;0.10;;;31.10;41.40;;;;;;5027831;28;20091;-64
2022/08/01 12:14:20;;;;;;;0.90;0.10;;;31.10;41.30;;;;;;5027581;28;20124;-64
2022/08/01 12:16:53;;;;;;;0.10;0.10;;;31.20;41.30;;;;;;5027702;28;20049;-64
2022/08/01 12:19:22;;;;;;;0.73;0.13;;;31.20;41.30;;;;;;5027529;28;20056;-64
2022/08/01 12:22:09;;;;;;;0.73;0.55;;;31.20;41.20;;;;;;5027877;28;20072;-64
2022/08/01 12:24:37;;;;;;;0.73;0.10;;;31.20;41.10;;;;;;5027795;28;20517;-65
2022/08/01 12:27:05;;;;;;;0.10;0.10;;;31.20;41.10;;;;;;5027830;28;20132;-64
2022/08/01 12:29:37;;;;;;;1.08;0.10;;;31.20;41.10;;;;;;5027900;28;20041;-65
2022/08/01 12:32:05;;;;;;;0.30;0.10;;;31.20;41.10;;;;;;5028090;28;20037;-65
2022/08/01 12:34:35;;;;;;;0.10;0.10;;;31.30;41.10;;;;;;5027363;28;20503;-64
2022/08/01 12:37:03;;;;;;;1.23;0.10;;;31.20;41.00;;;;;;5027483;28;20072;-64
2022/08/01 12:39:33;;;;;;;1.08;0.20;;;31.20;41.00;;;;;;5027492;28;20042;-64
2022/08/01 12:42:00;;;;;;;0.20;0.20;;;31.30;41.00;;;;;;5021037;28;20121;-64
2022/08/01 12:44:29;;;;;;;0.25;0.10;;;31.30;41.00;;;;;;5027645;28;20574;-63
2022/08/01 12:46:57;;;;;;;0.88;0.10;;;31.30;40.90;;;;;;5027263;28;20045;-62
2022/08/01 12:49:24;;;;;;;0.20;0.20;;;31.30;41.00;;;;;;5027392;28;20038;-64
2022/08/01 12:51:53;;;;;;;0.10;0.10;;;31.30;40.90;;;;;;5027443;28;20042;-63
2022/08/01 12:54:20;;;;;;;0.20;0.10;;;31.30;40.80;;;;;;5027159;28;20434;-65
2022/08/01 12:56:47;;;;;;;0.10;0.10;;;31.30;40.80;;;;;;5027369;28;20090;-64
2022/08/01 12:59:22;;;;;;;0.20;0.10;;;31.30;40.80;;;;;;5027669;28;20408;-64
2022/08/01 13:01:49;;;;;;;0.32;0.17;;;31.40;40.80;;;;;;5025050;28;20053;-64
2022/08/01 13:04:16;;;;;;;1.13;0.20;;;31.30;40.70;;;;;;5024585;28;20041;-63
2022/08/01 13:06:43;;;;;;;0.20;0.20;;;31.30;40.70;;;;;;5024539;28;20152;-64